KMGM/MGM METAR and TAF weather

Enter ICAO airport designator
Station Type Date Time Source
KMGM METAR 2021/04/14 19:53 UTC NOAA

KMGM 141953Z AUTO 24009KT 10SM BKN070 BKN085 22/15 A3007 RMK AO2 RAE1859 SLP181 P0000 T02170150 $


Station Type Date Time Source
KMGM Decoded METAR 2021/04/14 19:53 UTC NOAA

MONTGOMERY DANNELLY FIELD, AL, United States (KMGM) 32-18N 86-24W 63M
Apr 14, 2021 - 03:53 PM EDT / 2021.04.14 1953 UTC
Wind: from the WSW (240 degrees) at 10 MPH (9 KT):0
Visibility: 10 mile(s):0
Sky conditions: mostly cloudy
Precipitation last hour: A trace
Temperature: 71.1 F (21.7 C)
Dew Point: 59.0 F (15.0 C)
Relative Humidity: 65%
Pressure (altimeter): 30.07 in. Hg (1018 hPa)
ob: KMGM 141953Z AUTO 24009KT 10SM BKN070 BKN085 22/15 A3007 RMK AO2 RAE1859 SLP181 P0000 T02170150
cycle: 20

Station Type Date Time Source
KMGM TAF 2021/04/14 19:40 UTC NOAA

TAF
AMD KMGM 141838Z 1419/1518 22008KT P6SM RA BKN080
FM142200 23007KT 6SM SHRA BR VCTS OVC040CB
FM150300 26005KT P6SM OVC015 PROB30 1504/1509 4SM SHRA BR OVC005
FM150900 30007KT P6SM OVC020 PROB30 1510/1516 4SM SHRA BR OVC010
FM151600 35010KT P6SM OVC020 PROB30 1516/1518 4SM SHRA BR OVC010

Example: see airport list